sensor_id;sensor_type;location;lat;lon;timestamp;pressure;altitude;pressure_sealevel;temperature
42119;BMP280;27783;42.782;23.274;2023-02-15T00:01:49;96742.13;;;1.28
42119;BMP280;27783;42.782;23.274;2023-02-15T00:04:31;96746.22;;;1.29
42119;BMP280;27783;42.782;23.274;2023-02-15T00:07:13;96750.19;;;1.26
42119;BMP280;27783;42.782;23.274;2023-02-15T00:09:39;96753.09;;;1.25
42119;BMP280;27783;42.782;23.274;2023-02-15T00:12:04;96747.59;;;1.26
42119;BMP280;27783;42.782;23.274;2023-02-15T00:14:29;96760.63;;;1.13
42119;BMP280;27783;42.782;23.274;2023-02-15T00:16:55;96753.00;;;1.16
42119;BMP280;27783;42.782;23.274;2023-02-15T00:19:26;96750.66;;;1.07
42119;BMP280;27783;42.782;23.274;2023-02-15T00:21:52;96758.22;;;1.16
42119;BMP280;27783;42.782;23.274;2023-02-15T00:24:19;96745.88;;;1.22
42119;BMP280;27783;42.782;23.274;2023-02-15T00:26:47;96752.41;;;1.19
42119;BMP280;27783;42.782;23.274;2023-02-15T00:29:14;96749.06;;;1.19
42119;BMP280;27783;42.782;23.274;2023-02-15T00:31:41;96760.44;;;1.10
42119;BMP280;27783;42.782;23.274;2023-02-15T00:34:15;96764.13;;;0.96
42119;BMP280;27783;42.782;23.274;2023-02-15T00:36:43;96762.69;;;0.90
42119;BMP280;27783;42.782;23.274;2023-02-15T00:39:11;96761.19;;;0.89
42119;BMP280;27783;42.782;23.274;2023-02-15T00:41:37;96761.19;;;0.76
42119;BMP280;27783;42.782;23.274;2023-02-15T00:44:02;96760.72;;;0.61
42119;BMP280;27783;42.782;23.274;2023-02-15T00:46:31;96760.91;;;0.64
42119;BMP280;27783;42.782;23.274;2023-02-15T00:48:57;96770.44;;;0.68
42119;BMP280;27783;42.782;23.274;2023-02-15T00:51:23;96761.69;;;0.65
42119;BMP280;27783;42.782;23.274;2023-02-15T00:53:50;96766.69;;;0.61
42119;BMP280;27783;42.782;23.274;2023-02-15T00:56:17;96766.91;;;0.51
42119;BMP280;27783;42.782;23.274;2023-02-15T00:58:44;96768.25;;;0.23
42119;BMP280;27783;42.782;23.274;2023-02-15T01:01:30;96767.28;;;0.19
42119;BMP280;27783;42.782;23.274;2023-02-15T01:03:56;96762.84;;;-0.07
42119;BMP280;27783;42.782;23.274;2023-02-15T01:06:23;96765.50;;;-0.12
42119;BMP280;27783;42.782;23.274;2023-02-15T01:08:48;96758.78;;;-0.13
42119;BMP280;27783;42.782;23.274;2023-02-15T01:11:20;96766.88;;;-0.01
42119;BMP280;27783;42.782;23.274;2023-02-15T01:13:59;96767.16;;;0.11
42119;BMP280;27783;42.782;23.274;2023-02-15T01:16:34;96753.25;;;0.07
42119;BMP280;27783;42.782;23.274;2023-02-15T01:19:00;96755.56;;;0.08
42119;BMP280;27783;42.782;23.274;2023-02-15T01:21:28;96749.03;;;-0.02
42119;BMP280;27783;42.782;23.274;2023-02-15T01:23:55;96758.06;;;0.00
42119;BMP280;27783;42.782;23.274;2023-02-15T01:26:26;96752.88;;;0.00
42119;BMP280;27783;42.782;23.274;2023-02-15T01:28:52;96746.72;;;-0.04
42119;BMP280;27783;42.782;23.274;2023-02-15T01:31:20;96747.22;;;0.11
42119;BMP280;27783;42.782;23.274;2023-02-15T01:33:46;96748.66;;;0.30
42119;BMP280;27783;42.782;23.274;2023-02-15T01:36:13;96744.13;;;0.62
42119;BMP280;27783;42.782;23.274;2023-02-15T01:38:39;96740.94;;;0.65
42119;BMP280;27783;42.782;23.274;2023-02-15T01:41:06;96738.81;;;0.66
42119;BMP280;27783;42.782;23.274;2023-02-15T01:43:54;96737.75;;;0.81
42119;BMP280;27783;42.782;23.274;2023-02-15T01:46:48;96735.69;;;0.91
42119;BMP280;27783;42.782;23.274;2023-02-15T01:49:15;96739.94;;;0.87
42119;BMP280;27783;42.782;23.274;2023-02-15T01:51:44;96734.09;;;0.82
42119;BMP280;27783;42.782;23.274;2023-02-15T01:54:17;96728.16;;;0.68
42119;BMP280;27783;42.782;23.274;2023-02-15T01:56:44;96730.97;;;0.58
42119;BMP280;27783;42.782;23.274;2023-02-15T01:59:16;96729.19;;;0.06
42119;BMP280;27783;42.782;23.274;2023-02-15T02:01:44;96732.81;;;-0.08
42119;BMP280;27783;42.782;23.274;2023-02-15T02:04:20;96729.59;;;-0.31
42119;BMP280;27783;42.782;23.274;2023-02-15T02:06:51;96729.22;;;-0.25
42119;BMP280;27783;42.782;23.274;2023-02-15T02:09:18;96736.72;;;-0.23
42119;BMP280;27783;42.782;23.274;2023-02-15T02:11:44;96732.19;;;-0.31
42119;BMP280;27783;42.782;23.274;2023-02-15T02:14:11;96733.81;;;-0.35
42119;BMP280;27783;42.782;23.274;2023-02-15T02:16:48;96742.63;;;-0.36
42119;BMP280;27783;42.782;23.274;2023-02-15T02:19:52;96752.53;;;-0.56
42119;BMP280;27783;42.782;23.274;2023-02-15T02:34:30;96755.28;;;-1.33
42119;BMP280;27783;42.782;23.274;2023-02-15T02:37:03;96747.66;;;-1.24
42119;BMP280;27783;42.782;23.274;2023-02-15T02:44:51;96749.19;;;-1.23
42119;BMP280;27783;42.782;23.274;2023-02-15T02:50:13;96740.31;;;-1.17
42119;BMP280;27783;42.782;23.274;2023-02-15T02:58:03;96754.50;;;-0.97
42119;BMP280;27783;42.782;23.274;2023-02-15T03:00:38;96756.94;;;-0.87
42119;BMP280;27783;42.782;23.274;2023-02-15T03:03:53;96765.88;;;-0.80
42119;BMP280;27783;42.782;23.274;2023-02-15T03:09:08;96763.78;;;-0.78
42119;BMP280;27783;42.782;23.274;2023-02-15T03:11:43;96770.16;;;-0.71
42119;BMP280;27783;42.782;23.274;2023-02-15T03:14:13;96769.88;;;-0.69
42119;BMP280;27783;42.782;23.274;2023-02-15T03:16:40;96767.34;;;-0.56
42119;BMP280;27783;42.782;23.274;2023-02-15T03:19:13;96776.56;;;-0.50
42119;BMP280;27783;42.782;23.274;2023-02-15T03:22:06;96771.97;;;-0.40
42119;BMP280;27783;42.782;23.274;2023-02-15T03:24:41;96769.78;;;-0.33
42119;BMP280;27783;42.782;23.274;2023-02-15T03:27:17;96770.41;;;-0.23
42119;BMP280;27783;42.782;23.274;2023-02-15T03:29:48;96772.78;;;-0.27
42119;BMP280;27783;42.782;23.274;2023-02-15T03:32:15;96773.72;;;-0.23
42119;BMP280;27783;42.782;23.274;2023-02-15T03:34:41;96773.00;;;-0.23
42119;BMP280;27783;42.782;23.274;2023-02-15T03:37:15;96769.66;;;-0.11
42119;BMP280;27783;42.782;23.274;2023-02-15T03:40:03;96763.97;;;-0.13
42119;BMP280;27783;42.782;23.274;2023-02-15T03:45:34;96764.53;;;-0.16
42119;BMP280;27783;42.782;23.274;2023-02-15T03:48:04;96769.63;;;-0.24
42119;BMP280;27783;42.782;23.274;2023-02-15T03:50:33;96766.53;;;-0.26
42119;BMP280;27783;42.782;23.274;2023-02-15T03:53:21;96764.34;;;-0.19
42119;BMP280;27783;42.782;23.274;2023-02-15T03:55:52;96767.69;;;-0.32
42119;BMP280;27783;42.782;23.274;2023-02-15T03:58:19;96765.75;;;-0.26
42119;BMP280;27783;42.782;23.274;2023-02-15T04:01:27;96766.44;;;-0.34
42119;BMP280;27783;42.782;23.274;2023-02-15T04:04:19;96774.69;;;-0.32
42119;BMP280;27783;42.782;23.274;2023-02-15T04:06:45;96765.81;;;-0.44
42119;BMP280;27783;42.782;23.274;2023-02-15T04:09:12;96777.03;;;-0.49
42119;BMP280;27783;42.782;23.274;2023-02-15T04:11:55;96774.78;;;-0.37
42119;BMP280;27783;42.782;23.274;2023-02-15T04:14:22;96778.75;;;-0.13
42119;BMP280;27783;42.782;23.274;2023-02-15T04:17:07;96790.44;;;-0.16
42119;BMP280;27783;42.782;23.274;2023-02-15T04:19:33;96801.44;;;-0.36
42119;BMP280;27783;42.782;23.274;2023-02-15T04:22:16;96791.69;;;-0.57
42119;BMP280;27783;42.782;23.274;2023-02-15T04:25:09;96798.25;;;-0.65
42119;BMP280;27783;42.782;23.274;2023-02-15T04:27:38;96808.69;;;-0.69
42119;BMP280;27783;42.782;23.274;2023-02-15T04:30:08;96817.56;;;-0.93
42119;BMP280;27783;42.782;23.274;2023-02-15T04:32:35;96817.72;;;-1.03
42119;BMP280;27783;42.782;23.274;2023-02-15T04:35:07;96821.13;;;-1.07
42119;BMP280;27783;42.782;23.274;2023-02-15T04:37:34;96816.78;;;-1.12
42119;BMP280;27783;42.782;23.274;2023-02-15T04:39:59;96808.53;;;-0.60
42119;BMP280;27783;42.782;23.274;2023-02-15T04:42:32;96818.25;;;-0.88
42119;BMP280;27783;42.782;23.274;2023-02-15T04:44:57;96820.00;;;-1.19
42119;BMP280;27783;42.782;23.274;2023-02-15T04:47:23;96818.69;;;-1.40
42119;BMP280;27783;42.782;23.274;2023-02-15T04:49:48;96815.34;;;-1.40
42119;BMP280;27783;42.782;23.274;2023-02-15T04:52:14;96816.59;;;-1.38
42119;BMP280;27783;42.782;23.274;2023-02-15T04:54:41;96818.25;;;-1.47
42119;BMP280;27783;42.782;23.274;2023-02-15T04:57:09;96822.00;;;-1.34
42119;BMP280;27783;42.782;23.274;2023-02-15T04:59:35;96826.38;;;-1.35
42119;BMP280;27783;42.782;23.274;2023-02-15T05:02:01;96825.19;;;-1.19
42119;BMP280;27783;42.782;23.274;2023-02-15T05:04:27;96832.47;;;-1.03
42119;BMP280;27783;42.782;23.274;2023-02-15T05:06:52;96825.59;;;-0.95
42119;BMP280;27783;42.782;23.274;2023-02-15T05:09:18;96823.53;;;-0.93
42119;BMP280;27783;42.782;23.274;2023-02-15T05:11:45;96833.22;;;-1.03
42119;BMP280;27783;42.782;23.274;2023-02-15T05:14:11;96834.16;;;-0.94
42119;BMP280;27783;42.782;23.274;2023-02-15T05:16:37;96841.50;;;-1.24
42119;BMP280;27783;42.782;23.274;2023-02-15T05:19:03;96845.03;;;-1.38
42119;BMP280;27783;42.782;23.274;2023-02-15T05:21:28;96841.53;;;-1.47
42119;BMP280;27783;42.782;23.274;2023-02-15T05:23:54;96845.16;;;-1.48
42119;BMP280;27783;42.782;23.274;2023-02-15T05:26:22;96850.53;;;-1.67
42119;BMP280;27783;42.782;23.274;2023-02-15T05:29:06;96851.88;;;-1.69
42119;BMP280;27783;42.782;23.274;2023-02-15T05:31:33;96859.97;;;-1.81
42119;BMP280;27783;42.782;23.274;2023-02-15T05:34:00;96868.72;;;-1.77
42119;BMP280;27783;42.782;23.274;2023-02-15T05:36:26;96851.22;;;-1.57
42119;BMP280;27783;42.782;23.274;2023-02-15T05:38:55;96860.72;;;-1.52
42119;BMP280;27783;42.782;23.274;2023-02-15T05:41:21;96870.34;;;-1.58
42119;BMP280;27783;42.782;23.274;2023-02-15T05:43:46;96868.50;;;-1.52
42119;BMP280;27783;42.782;23.274;2023-02-15T05:46:12;96868.19;;;-1.51
42119;BMP280;27783;42.782;23.274;2023-02-15T05:48:37;96860.66;;;-1.48
42119;BMP280;27783;42.782;23.274;2023-02-15T05:51:08;96869.16;;;-1.42
42119;BMP280;27783;42.782;23.274;2023-02-15T05:53:36;96873.88;;;-1.26
42119;BMP280;27783;42.782;23.274;2023-02-15T05:56:02;96875.31;;;-1.16
42119;BMP280;27783;42.782;23.274;2023-02-15T05:58:30;96877.38;;;-1.17
42119;BMP280;27783;42.782;23.274;2023-02-15T06:00:56;96876.06;;;-1.15
42119;BMP280;27783;42.782;23.274;2023-02-15T06:03:23;96884.31;;;-1.13
42119;BMP280;27783;42.782;23.274;2023-02-15T06:05:49;96874.06;;;-1.00
42119;BMP280;27783;42.782;23.274;2023-02-15T06:08:14;96872.69;;;-0.93
42119;BMP280;27783;42.782;23.274;2023-02-15T06:10:40;96868.59;;;-0.76
42119;BMP280;27783;42.782;23.274;2023-02-15T06:13:06;96878.38;;;-0.73
42119;BMP280;27783;42.782;23.274;2023-02-15T06:15:31;96876.00;;;-0.69
42119;BMP280;27783;42.782;23.274;2023-02-15T06:17:56;96881.25;;;-0.56
42119;BMP280;27783;42.782;23.274;2023-02-15T06:20:22;96879.06;;;-0.32
42119;BMP280;27783;42.782;23.274;2023-02-15T06:22:47;96885.22;;;-0.28
42119;BMP280;27783;42.782;23.274;2023-02-15T06:25:12;96883.88;;;-0.25
42119;BMP280;27783;42.782;23.274;2023-02-15T06:27:41;96891.16;;;-0.27
42119;BMP280;27783;42.782;23.274;2023-02-15T06:30:07;96892.97;;;-0.28
42119;BMP280;27783;42.782;23.274;2023-02-15T06:32:33;96892.88;;;-0.23
42119;BMP280;27783;42.782;23.274;2023-02-15T06:34:58;96884.63;;;-0.25
42119;BMP280;27783;42.782;23.274;2023-02-15T06:37:24;96881.09;;;0.02
42119;BMP280;27783;42.782;23.274;2023-02-15T06:39:49;96882.16;;;0.01
42119;BMP280;27783;42.782;23.274;2023-02-15T06:42:15;96883.03;;;0.10
42119;BMP280;27783;42.782;23.274;2023-02-15T06:44:40;96884.72;;;0.19
42119;BMP280;27783;42.782;23.274;2023-02-15T06:47:06;96875.41;;;0.32
42119;BMP280;27783;42.782;23.274;2023-02-15T06:49:31;96881.25;;;0.37
42119;BMP280;27783;42.782;23.274;2023-02-15T06:51:56;96882.63;;;0.48
42119;BMP280;27783;42.782;23.274;2023-02-15T06:54:22;96891.38;;;0.51
42119;BMP280;27783;42.782;23.274;2023-02-15T06:56:47;96886.97;;;0.65
42119;BMP280;27783;42.782;23.274;2023-02-15T06:59:12;96877.38;;;0.79
42119;BMP280;27783;42.782;23.274;2023-02-15T07:01:38;96880.44;;;0.81
42119;BMP280;27783;42.782;23.274;2023-02-15T07:04:03;96877.97;;;0.89
42119;BMP280;27783;42.782;23.274;2023-02-15T07:06:33;96885.25;;;1.00
42119;BMP280;27783;42.782;23.274;2023-02-15T07:08:58;96874.44;;;1.19
42119;BMP280;27783;42.782;23.274;2023-02-15T07:11:24;96882.78;;;1.43
42119;BMP280;27783;42.782;23.274;2023-02-15T07:14:08;96881.50;;;1.53
42119;BMP280;27783;42.782;23.274;2023-02-15T07:16:33;96876.09;;;1.63
42119;BMP280;27783;42.782;23.274;2023-02-15T07:18:59;96877.78;;;1.81
42119;BMP280;27783;42.782;23.274;2023-02-15T07:21:24;96883.63;;;2.07
42119;BMP280;27783;42.782;23.274;2023-02-15T07:23:49;96893.38;;;2.23
42119;BMP280;27783;42.782;23.274;2023-02-15T07:26:15;96886.25;;;2.37
42119;BMP280;27783;42.782;23.274;2023-02-15T07:28:40;96890.53;;;2.63
42119;BMP280;27783;42.782;23.274;2023-02-15T07:31:05;96894.69;;;2.72
42119;BMP280;27783;42.782;23.274;2023-02-15T07:33:32;96881.41;;;2.82
42119;BMP280;27783;42.782;23.274;2023-02-15T07:35:59;96873.94;;;2.97
42119;BMP280;27783;42.782;23.274;2023-02-15T07:38:29;96870.78;;;3.08
42119;BMP280;27783;42.782;23.274;2023-02-15T07:41:01;96877.09;;;3.23
42119;BMP280;27783;42.782;23.274;2023-02-15T07:43:28;96875.94;;;3.46
42119;BMP280;27783;42.782;23.274;2023-02-15T07:45:54;96870.25;;;3.60
42119;BMP280;27783;42.782;23.274;2023-02-15T07:48:19;96865.38;;;3.59
42119;BMP280;27783;42.782;23.274;2023-02-15T07:50:45;96870.13;;;3.82
42119;BMP280;27783;42.782;23.274;2023-02-15T07:53:10;96868.56;;;3.89
42119;BMP280;27783;42.782;23.274;2023-02-15T07:55:35;96861.97;;;4.08
42119;BMP280;27783;42.782;23.274;2023-02-15T07:58:01;96854.59;;;4.10
42119;BMP280;27783;42.782;23.274;2023-02-15T08:00:27;96861.47;;;4.22
42119;BMP280;27783;42.782;23.274;2023-02-15T08:02:55;96866.66;;;4.39
42119;BMP280;27783;42.782;23.274;2023-02-15T08:05:40;96864.16;;;4.59
42119;BMP280;27783;42.782;23.274;2023-02-15T08:08:06;96860.53;;;4.43
42119;BMP280;27783;42.782;23.274;2023-02-15T08:10:32;96867.25;;;4.52
42119;BMP280;27783;42.782;23.274;2023-02-15T08:13:30;96860.75;;;4.66
42119;BMP280;27783;42.782;23.274;2023-02-15T08:15:55;96861.91;;;4.85
42119;BMP280;27783;42.782;23.274;2023-02-15T08:18:21;96861.34;;;4.72
42119;BMP280;27783;42.782;23.274;2023-02-15T08:20:49;96867.84;;;4.94
42119;BMP280;27783;42.782;23.274;2023-02-15T08:23:15;96868.75;;;5.06
42119;BMP280;27783;42.782;23.274;2023-02-15T08:25:40;96864.81;;;4.92
42119;BMP280;27783;42.782;23.274;2023-02-15T08:28:06;96865.78;;;5.08
42119;BMP280;27783;42.782;23.274;2023-02-15T08:30:31;96857.22;;;5.27
42119;BMP280;27783;42.782;23.274;2023-02-15T08:32:56;96861.88;;;5.22
42119;BMP280;27783;42.782;23.274;2023-02-15T08:35:22;96863.72;;;5.21
42119;BMP280;27783;42.782;23.274;2023-02-15T08:37:47;96853.63;;;5.40
42119;BMP280;27783;42.782;23.274;2023-02-15T08:40:12;96860.97;;;5.18
42119;BMP280;27783;42.782;23.274;2023-02-15T08:42:38;96867.84;;;5.50
42119;BMP280;27783;42.782;23.274;2023-02-15T08:45:04;96854.47;;;5.52
42119;BMP280;27783;42.782;23.274;2023-02-15T08:47:29;96863.78;;;5.61
42119;BMP280;27783;42.782;23.274;2023-02-15T08:49:55;96863.00;;;5.61
42119;BMP280;27783;42.782;23.274;2023-02-15T08:52:21;96866.59;;;5.56
42119;BMP280;27783;42.782;23.274;2023-02-15T08:54:46;96858.19;;;5.71
42119;BMP280;27783;42.782;23.274;2023-02-15T08:57:11;96868.13;;;5.57
42119;BMP280;27783;42.782;23.274;2023-02-15T08:59:37;96862.16;;;5.77
42119;BMP280;27783;42.782;23.274;2023-02-15T09:02:02;96867.84;;;5.99
42119;BMP280;27783;42.782;23.274;2023-02-15T09:04:28;96866.00;;;5.99
42119;BMP280;27783;42.782;23.274;2023-02-15T09:06:53;96862.66;;;5.90
42119;BMP280;27783;42.782;23.274;2023-02-15T09:09:20;96867.97;;;6.02
42119;BMP280;27783;42.782;23.274;2023-02-15T09:11:48;96873.38;;;5.97
42119;BMP280;27783;42.782;23.274;2023-02-15T09:14:16;96864.88;;;6.00
42119;BMP280;27783;42.782;23.274;2023-02-15T09:16:44;96861.16;;;6.21
42119;BMP280;27783;42.782;23.274;2023-02-15T09:19:11;96854.03;;;6.10
42119;BMP280;27783;42.782;23.274;2023-02-15T09:21:37;96856.41;;;6.34
42119;BMP280;27783;42.782;23.274;2023-02-15T09:24:06;96866.41;;;6.21
42119;BMP280;27783;42.782;23.274;2023-02-15T09:26:35;96856.19;;;6.39
42119;BMP280;27783;42.782;23.274;2023-02-15T09:29:01;96854.41;;;6.63
42119;BMP280;27783;42.782;23.274;2023-02-15T09:31:30;96861.78;;;6.49
42119;BMP280;27783;42.782;23.274;2023-02-15T09:33:58;96864.22;;;6.54
42119;BMP280;27783;42.782;23.274;2023-02-15T09:36:29;96855.66;;;7.12
42119;BMP280;27783;42.782;23.274;2023-02-15T09:39:14;96869.16;;;6.79
42119;BMP280;27783;42.782;23.274;2023-02-15T09:52:28;96848.34;;;7.06
42119;BMP280;27783;42.782;23.274;2023-02-15T10:00:26;96844.41;;;7.12
42119;BMP280;27783;42.782;23.274;2023-02-15T10:03:09;96847.91;;;7.04
42119;BMP280;27783;42.782;23.274;2023-02-15T10:20:22;96822.59;;;7.58
42119;BMP280;27783;42.782;23.274;2023-02-15T10:23:36;96835.84;;;7.38
42119;BMP280;27783;42.782;23.274;2023-02-15T10:26:21;96830.41;;;7.31
42119;BMP280;27783;42.782;23.274;2023-02-15T10:29:02;96824.50;;;7.46
42119;BMP280;27783;42.782;23.274;2023-02-15T10:31:45;96818.22;;;7.62
42119;BMP280;27783;42.782;23.274;2023-02-15T10:34:20;96818.53;;;7.72
42119;BMP280;27783;42.782;23.274;2023-02-15T10:36:58;96819.47;;;7.41
42119;BMP280;27783;42.782;23.274;2023-02-15T11:06:42;96801.16;;;8.48
42119;BMP280;27783;42.782;23.274;2023-02-15T11:09:14;96778.50;;;9.03
42119;BMP280;27783;42.782;23.274;2023-02-15T11:11:45;96794.38;;;8.77
42119;BMP280;27783;42.782;23.274;2023-02-15T11:14:19;96794.31;;;8.58
42119;BMP280;27783;42.782;23.274;2023-02-15T11:16:50;96781.84;;;8.85
42119;BMP280;27783;42.782;23.274;2023-02-15T11:19:28;96781.56;;;8.90
42119;BMP280;27783;42.782;23.274;2023-02-15T11:21:59;96791.06;;;8.34
42119;BMP280;27783;42.782;23.274;2023-02-15T11:24:28;96790.16;;;8.72
42119;BMP280;27783;42.782;23.274;2023-02-15T11:26:57;96782.75;;;9.08
42119;BMP280;27783;42.782;23.274;2023-02-15T11:30:00;96777.59;;;8.81
42119;BMP280;27783;42.782;23.274;2023-02-15T11:32:37;96778.06;;;9.16
42119;BMP280;27783;42.782;23.274;2023-02-15T11:40:54;96771.47;;;8.92
42119;BMP280;27783;42.782;23.274;2023-02-15T11:43:43;96765.69;;;9.69
42119;BMP280;27783;42.782;23.274;2023-02-15T11:46:11;96759.81;;;9.23
42119;BMP280;27783;42.782;23.274;2023-02-15T11:48:37;96767.31;;;9.40
42119;BMP280;27783;42.782;23.274;2023-02-15T11:51:03;96761.06;;;9.81
42119;BMP280;27783;42.782;23.274;2023-02-15T11:53:32;96767.69;;;9.23
42119;BMP280;27783;42.782;23.274;2023-02-15T11:55:58;96760.88;;;9.37
42119;BMP280;27783;42.782;23.274;2023-02-15T11:58:35;96756.59;;;9.48
42119;BMP280;27783;42.782;23.274;2023-02-15T12:01:16;96755.16;;;9.17
42119;BMP280;27783;42.782;23.274;2023-02-15T12:03:48;96750.97;;;9.31
42119;BMP280;27783;42.782;23.274;2023-02-15T12:06:25;96742.53;;;9.59
42119;BMP280;27783;42.782;23.274;2023-02-15T12:08:57;96742.03;;;9.35
42119;BMP280;27783;42.782;23.274;2023-02-15T12:11:30;96744.50;;;8.95
42119;BMP280;27783;42.782;23.274;2023-02-15T12:14:00;96740.16;;;9.36
42119;BMP280;27783;42.782;23.274;2023-02-15T12:16:27;96731.44;;;9.69
42119;BMP280;27783;42.782;23.274;2023-02-15T12:18:58;96735.69;;;9.73
42119;BMP280;27783;42.782;23.274;2023-02-15T12:21:34;96729.91;;;9.83
42119;BMP280;27783;42.782;23.274;2023-02-15T12:24:15;96730.28;;;10.03
42119;BMP280;27783;42.782;23.274;2023-02-15T12:26:43;96717.31;;;9.95
42119;BMP280;27783;42.782;23.274;2023-02-15T12:29:20;96727.03;;;10.10
42119;BMP280;27783;42.782;23.274;2023-02-15T12:31:50;96719.75;;;9.66
42119;BMP280;27783;42.782;23.274;2023-02-15T12:34:32;96720.00;;;10.17
42119;BMP280;27783;42.782;23.274;2023-02-15T12:37:02;96714.28;;;10.33
42119;BMP280;27783;42.782;23.274;2023-02-15T12:39:32;96708.28;;;10.58
42119;BMP280;27783;42.782;23.274;2023-02-15T12:42:14;96703.00;;;10.15
42119;BMP280;27783;42.782;23.274;2023-02-15T12:44:53;96691.66;;;10.32
42119;BMP280;27783;42.782;23.274;2023-02-15T12:47:19;96701.38;;;10.50
42119;BMP280;27783;42.782;23.274;2023-02-15T12:52:31;96697.47;;;10.41
42119;BMP280;27783;42.782;23.274;2023-02-15T12:55:10;96696.88;;;10.51
42119;BMP280;27783;42.782;23.274;2023-02-15T12:57:36;96682.34;;;10.16
42119;BMP280;27783;42.782;23.274;2023-02-15T13:02:52;96682.66;;;10.33
42119;BMP280;27783;42.782;23.274;2023-02-15T13:05:51;96673.22;;;10.32
42119;BMP280;27783;42.782;23.274;2023-02-15T13:08:27;96691.56;;;9.85
42119;BMP280;27783;42.782;23.274;2023-02-15T13:13:24;96667.72;;;9.97
42119;BMP280;27783;42.782;23.274;2023-02-15T13:15:52;96668.22;;;10.06
42119;BMP280;27783;42.782;23.274;2023-02-15T13:18:41;96676.84;;;10.25
42119;BMP280;27783;42.782;23.274;2023-02-15T13:23:37;96672.47;;;10.32
42119;BMP280;27783;42.782;23.274;2023-02-15T13:26:11;96674.00;;;10.33
42119;BMP280;27783;42.782;23.274;2023-02-15T13:28:44;96669.28;;;10.45
42119;BMP280;27783;42.782;23.274;2023-02-15T13:31:22;96669.44;;;10.30
42119;BMP280;27783;42.782;23.274;2023-02-15T13:33:55;96677.47;;;10.40
42119;BMP280;27783;42.782;23.274;2023-02-15T13:36:33;96671.38;;;10.58
42119;BMP280;27783;42.782;23.274;2023-02-15T13:42:01;96677.06;;;9.95
42119;BMP280;27783;42.782;23.274;2023-02-15T13:55:26;96691.63;;;9.70
42119;BMP280;27783;42.782;23.274;2023-02-15T14:03:04;96700.56;;;9.48
42119;BMP280;27783;42.782;23.274;2023-02-15T14:17:25;96716.84;;;8.86
42119;BMP280;27783;42.782;23.274;2023-02-15T14:19:57;96718.66;;;8.82
42119;BMP280;27783;42.782;23.274;2023-02-15T14:22:36;96725.72;;;9.12
42119;BMP280;27783;42.782;23.274;2023-02-15T14:25:25;96723.31;;;8.88
42119;BMP280;27783;42.782;23.274;2023-02-15T14:28:09;96718.13;;;8.92
42119;BMP280;27783;42.782;23.274;2023-02-15T14:30:48;96717.63;;;8.86
42119;BMP280;27783;42.782;23.274;2023-02-15T14:35:39;96713.16;;;8.57
42119;BMP280;27783;42.782;23.274;2023-02-15T14:39:06;96712.75;;;8.40
42119;BMP280;27783;42.782;23.274;2023-02-15T14:41:22;96703.41;;;8.57
42119;BMP280;27783;42.782;23.274;2023-02-15T14:44:15;96708.59;;;8.69
42119;BMP280;27783;42.782;23.274;2023-02-15T14:49:22;96713.94;;;8.42
42119;BMP280;27783;42.782;23.274;2023-02-15T15:02:00;96715.69;;;8.23
42119;BMP280;27783;42.782;23.274;2023-02-15T15:04:37;96720.91;;;7.93
42119;BMP280;27783;42.782;23.274;2023-02-15T15:09:40;96723.25;;;7.56
42119;BMP280;27783;42.782;23.274;2023-02-15T15:14:44;96715.56;;;7.63
42119;BMP280;27783;42.782;23.274;2023-02-15T15:17:59;96722.81;;;7.54
42119;BMP280;27783;42.782;23.274;2023-02-15T15:22:39;96729.91;;;7.27
42119;BMP280;27783;42.782;23.274;2023-02-15T15:27:57;96720.56;;;7.03
42119;BMP280;27783;42.782;23.274;2023-02-15T15:33:42;96730.53;;;6.74
42119;BMP280;27783;42.782;23.274;2023-02-15T15:38:49;96726.47;;;6.30
42119;BMP280;27783;42.782;23.274;2023-02-15T15:49:37;96738.78;;;5.75
42119;BMP280;27783;42.782;23.274;2023-02-15T15:52:18;96737.00;;;5.67
42119;BMP280;27783;42.782;23.274;2023-02-15T15:54:44;96738.91;;;5.58
42119;BMP280;27783;42.782;23.274;2023-02-15T15:57:21;96735.53;;;5.38
42119;BMP280;27783;42.782;23.274;2023-02-15T15:59:51;96738.63;;;5.20
42119;BMP280;27783;42.782;23.274;2023-02-15T16:02:17;96745.03;;;5.02
42119;BMP280;27783;42.782;23.274;2023-02-15T16:04:43;96746.16;;;4.93
42119;BMP280;27783;42.782;23.274;2023-02-15T16:10:06;96747.66;;;4.74
42119;BMP280;27783;42.782;23.274;2023-02-15T16:12:34;96750.94;;;4.63
42119;BMP280;27783;42.782;23.274;2023-02-15T16:15:22;96750.03;;;4.59
42119;BMP280;27783;42.782;23.274;2023-02-15T16:18:13;96754.72;;;4.46
42119;BMP280;27783;42.782;23.274;2023-02-15T16:20:45;96757.84;;;4.31
42119;BMP280;27783;42.782;23.274;2023-02-15T16:29:17;96764.72;;;3.91
42119;BMP280;27783;42.782;23.274;2023-02-15T16:34:59;96762.00;;;3.71
42119;BMP280;27783;42.782;23.274;2023-02-15T16:37:33;96758.31;;;3.64
42119;BMP280;27783;42.782;23.274;2023-02-15T16:39:59;96764.91;;;3.53
42119;BMP280;27783;42.782;23.274;2023-02-15T16:42:25;96762.16;;;3.49
42119;BMP280;27783;42.782;23.274;2023-02-15T16:45:07;96764.78;;;3.41
42119;BMP280;27783;42.782;23.274;2023-02-15T16:47:40;96760.03;;;3.51
42119;BMP280;27783;42.782;23.274;2023-02-15T16:50:17;96765.25;;;3.18
42119;BMP280;27783;42.782;23.274;2023-02-15T16:52:43;96766.75;;;3.11
42119;BMP280;27783;42.782;23.274;2023-02-15T16:55:23;96764.78;;;3.08
42119;BMP280;27783;42.782;23.274;2023-02-15T16:57:49;96765.66;;;2.87
42119;BMP280;27783;42.782;23.274;2023-02-15T17:00:20;96771.94;;;2.95
42119;BMP280;27783;42.782;23.274;2023-02-15T17:03:02;96774.19;;;2.71
42119;BMP280;27783;42.782;23.274;2023-02-15T17:05:50;96768.22;;;2.63
42119;BMP280;27783;42.782;23.274;2023-02-15T17:11:15;96773.13;;;2.26
42119;BMP280;27783;42.782;23.274;2023-02-15T17:16:32;96768.44;;;2.45
42119;BMP280;27783;42.782;23.274;2023-02-15T17:19:00;96774.81;;;2.31
42119;BMP280;27783;42.782;23.274;2023-02-15T17:21:44;96772.88;;;2.44
42119;BMP280;27783;42.782;23.274;2023-02-15T17:24:39;96773.63;;;2.36
42119;BMP280;27783;42.782;23.274;2023-02-15T17:27:29;96769.50;;;2.44
42119;BMP280;27783;42.782;23.274;2023-02-15T17:30:13;96773.78;;;2.40
42119;BMP280;27783;42.782;23.274;2023-02-15T17:32:43;96768.59;;;2.40
42119;BMP280;27783;42.782;23.274;2023-02-15T17:35:25;96777.97;;;2.49
42119;BMP280;27783;42.782;23.274;2023-02-15T17:38:02;96784.97;;;2.40
42119;BMP280;27783;42.782;23.274;2023-02-15T17:40:31;96776.69;;;2.38
42119;BMP280;27783;42.782;23.274;2023-02-15T17:42:57;96789.00;;;2.16